Dighton, MA (02715)

8:21 PM EDT on September 02, 2015 (GMT -0400)
Dighton | | Change Station
CLOSE
Current Station
Personal Weather Station
Location: Dighton, MA
Elevation: 49 ft
Nearby Weather Stations

Elev 49 ft 41.82 °N, 71.13 °W | Updated 4 minutes ago

Clear
Clear
73.4 °F
Feels Like 73 °F
N
3.2
Wind Variable Wind from WSW

Today
High -- | Low -- °F
--% Chance of Precip.
Yesterday
High -- | Low -- °F
Precip. -- in
6:11 AM 7:16 PM
Waning Gibbous, 76% visible
Pressure 29.88 in
Visibility 10.0 miles
Clouds Clear
Heat Index 73 °F
Dew Point 68 °F
Humidity 84%
Rainfall 0.00 in
Snow Depth Not available.
UV 0 out of 12
Pollen 8.70 out of 12
Air Quality Not available.
Flu Activity Not available.
METAR KTAN 022352Z AUTO VRB04KT 10SM CLR 24/18 A2988 RMK AO2 SLP116 T02390183 10311 20239 55003
Pressure 29.88 in
Visibility 10.0 miles
Clouds Clear
Heat Index 73 °F
Dew Point 68 °F
Humidity 84%
Rainfall 0.00 in
Snow Depth Not available.
UV 0 out of 12
Pollen 8.70 out of 12
Air Quality Not available.
Flu Activity Not available.
METAR KTAN 022352Z AUTO VRB04KT 10SM CLR 24/18 A2988 RMK AO2 SLP116 T02390183 10311 20239 55003

10-Day Weather Forecast

×

Almanac

Astronomy

Sep. 02, 2015 Rise Set
Actual Time
Civil Twilight
Nautical Twilight
Astronomical Twilight
Moon
Length of Visible Light
Length of Day
Tomorrow will be .
, % of the Moon is Illuminated

Today's Extremes

State Highs State Lows

Community

WunderPhotos

Upload Photos

1,851,849 photos uploaded!

WunderBlogs® & News

Nearby

Air Quality

  Air Quality AQ Index Pollutant
Not available.

Snow Depth

Station Depth Elevation

Earthquake Activity

City Distance Mag. Time & Date
Minimum magnitude displayed is 2.5.

Coastal Water Temperatures

Place Temperature

Stations

Nearby Weather Stations

Station Location Temp. Windchill Dew Point Humidity Wind Precip. Elev Updated Type